sensor_id;sensor_type;location;lat;lon;timestamp;P1;durP1;ratioP1;P2;durP2;ratioP2
7487;SDS011;3785;52.260;4.728;2023-07-31T00:01:36;2.25;;;1.13;;
7487;SDS011;3785;52.260;4.728;2023-07-31T00:04:56;3.83;;;1.40;;
7487;SDS011;3785;52.260;4.728;2023-07-31T00:08:17;4.07;;;1.63;;
7487;SDS011;3785;52.260;4.728;2023-07-31T00:11:37;5.03;;;2.28;;
7487;SDS011;3785;52.260;4.728;2023-07-31T00:14:58;7.03;;;2.63;;
7487;SDS011;3785;52.260;4.728;2023-07-31T00:18:19;5.10;;;2.22;;
7487;SDS011;3785;52.260;4.728;2023-07-31T00:21:39;8.13;;;3.20;;
7487;SDS011;3785;52.260;4.728;2023-07-31T00:25:00;6.57;;;1.92;;
7487;SDS011;3785;52.260;4.728;2023-07-31T00:28:20;9.45;;;2.30;;
7487;SDS011;3785;52.260;4.728;2023-07-31T00:31:41;5.50;;;2.47;;
7487;SDS011;3785;52.260;4.728;2023-07-31T00:35:01;9.23;;;2.20;;
7487;SDS011;3785;52.260;4.728;2023-07-31T00:38:22;6.88;;;1.88;;
7487;SDS011;3785;52.260;4.728;2023-07-31T00:41:43;4.13;;;1.50;;
7487;SDS011;3785;52.260;4.728;2023-07-31T00:45:03;3.95;;;1.80;;
7487;SDS011;3785;52.260;4.728;2023-07-31T00:48:25;2.72;;;1.35;;
7487;SDS011;3785;52.260;4.728;2023-07-31T00:51:45;5.28;;;1.48;;
7487;SDS011;3785;52.260;4.728;2023-07-31T00:55:06;6.90;;;1.38;;
7487;SDS011;3785;52.260;4.728;2023-07-31T00:58:27;5.00;;;2.05;;
7487;SDS011;3785;52.260;4.728;2023-07-31T01:01:47;4.40;;;1.98;;
7487;SDS011;3785;52.260;4.728;2023-07-31T01:05:08;8.30;;;2.35;;
7487;SDS011;3785;52.260;4.728;2023-07-31T01:08:33;8.13;;;2.10;;
7487;SDS011;3785;52.260;4.728;2023-07-31T01:12:16;7.63;;;2.45;;
7487;SDS011;3785;52.260;4.728;2023-07-31T01:15:37;6.80;;;2.15;;
7487;SDS011;3785;52.260;4.728;2023-07-31T01:18:58;8.45;;;2.38;;
7487;SDS011;3785;52.260;4.728;2023-07-31T01:26:21;8.98;;;2.70;;
7487;SDS011;3785;52.260;4.728;2023-07-31T01:33:07;11.52;;;2.92;;
7487;SDS011;3785;52.260;4.728;2023-07-31T01:36:28;8.88;;;2.97;;
7487;SDS011;3785;52.260;4.728;2023-07-31T01:39:51;9.77;;;3.20;;
7487;SDS011;3785;52.260;4.728;2023-07-31T01:43:12;7.35;;;2.90;;
7487;SDS011;3785;52.260;4.728;2023-07-31T01:46:32;12.32;;;2.65;;
7487;SDS011;3785;52.260;4.728;2023-07-31T01:49:53;9.48;;;2.92;;
7487;SDS011;3785;52.260;4.728;2023-07-31T01:53:13;7.70;;;2.80;;
7487;SDS011;3785;52.260;4.728;2023-07-31T01:56:34;11.32;;;3.03;;
7487;SDS011;3785;52.260;4.728;2023-07-31T01:59:55;9.38;;;3.13;;
7487;SDS011;3785;52.260;4.728;2023-07-31T02:03:16;9.88;;;2.85;;
7487;SDS011;3785;52.260;4.728;2023-07-31T02:06:36;11.13;;;3.13;;
7487;SDS011;3785;52.260;4.728;2023-07-31T02:09:57;11.30;;;3.88;;
7487;SDS011;3785;52.260;4.728;2023-07-31T02:13:18;11.15;;;3.78;;
7487;SDS011;3785;52.260;4.728;2023-07-31T02:16:38;9.70;;;3.17;;
7487;SDS011;3785;52.260;4.728;2023-07-31T02:19:59;11.90;;;3.03;;
7487;SDS011;3785;52.260;4.728;2023-07-31T02:23:20;10.07;;;2.78;;
7487;SDS011;3785;52.260;4.728;2023-07-31T02:26:40;9.85;;;3.03;;
7487;SDS011;3785;52.260;4.728;2023-07-31T02:30:02;10.70;;;3.60;;
7487;SDS011;3785;52.260;4.728;2023-07-31T02:33:23;6.93;;;2.78;;
7487;SDS011;3785;52.260;4.728;2023-07-31T02:36:43;10.25;;;2.83;;
7487;SDS011;3785;52.260;4.728;2023-07-31T02:40:04;8.52;;;3.00;;
7487;SDS011;3785;52.260;4.728;2023-07-31T02:43:25;18.98;;;3.60;;
7487;SDS011;3785;52.260;4.728;2023-07-31T02:46:45;7.15;;;2.55;;
7487;SDS011;3785;52.260;4.728;2023-07-31T02:50:06;5.78;;;3.03;;
7487;SDS011;3785;52.260;4.728;2023-07-31T02:53:27;6.72;;;2.90;;
7487;SDS011;3785;52.260;4.728;2023-07-31T02:56:47;8.52;;;2.60;;
7487;SDS011;3785;52.260;4.728;2023-07-31T03:00:08;8.45;;;3.20;;
7487;SDS011;3785;52.260;4.728;2023-07-31T03:03:29;10.23;;;3.35;;
7487;SDS011;3785;52.260;4.728;2023-07-31T03:06:50;13.18;;;4.28;;
7487;SDS011;3785;52.260;4.728;2023-07-31T03:10:10;9.90;;;3.42;;
7487;SDS011;3785;52.260;4.728;2023-07-31T03:13:31;13.90;;;3.75;;
7487;SDS011;3785;52.260;4.728;2023-07-31T03:16:51;8.52;;;3.17;;
7487;SDS011;3785;52.260;4.728;2023-07-31T03:20:12;11.07;;;3.80;;
7487;SDS011;3785;52.260;4.728;2023-07-31T03:23:33;9.05;;;3.35;;
7487;SDS011;3785;52.260;4.728;2023-07-31T03:26:53;9.77;;;4.28;;
7487;SDS011;3785;52.260;4.728;2023-07-31T03:30:14;11.43;;;3.22;;
7487;SDS011;3785;52.260;4.728;2023-07-31T03:33:34;8.88;;;3.40;;
7487;SDS011;3785;52.260;4.728;2023-07-31T03:36:55;12.30;;;3.47;;
7487;SDS011;3785;52.260;4.728;2023-07-31T03:40:15;7.35;;;2.90;;
7487;SDS011;3785;52.260;4.728;2023-07-31T03:43:36;13.68;;;4.03;;
7487;SDS011;3785;52.260;4.728;2023-07-31T03:46:57;7.53;;;3.30;;
7487;SDS011;3785;52.260;4.728;2023-07-31T03:50:17;11.38;;;3.40;;
7487;SDS011;3785;52.260;4.728;2023-07-31T03:53:38;9.02;;;3.45;;
7487;SDS011;3785;52.260;4.728;2023-07-31T03:56:58;9.30;;;2.83;;
7487;SDS011;3785;52.260;4.728;2023-07-31T04:00:19;11.23;;;3.75;;
7487;SDS011;3785;52.260;4.728;2023-07-31T04:03:40;7.25;;;3.50;;
7487;SDS011;3785;52.260;4.728;2023-07-31T04:07:01;12.88;;;3.70;;
7487;SDS011;3785;52.260;4.728;2023-07-31T04:10:21;9.57;;;3.00;;
7487;SDS011;3785;52.260;4.728;2023-07-31T04:13:42;13.45;;;3.45;;
7487;SDS011;3785;52.260;4.728;2023-07-31T04:17:03;8.50;;;3.78;;
7487;SDS011;3785;52.260;4.728;2023-07-31T04:20:24;8.52;;;2.83;;
7487;SDS011;3785;52.260;4.728;2023-07-31T04:23:44;8.73;;;2.75;;
7487;SDS011;3785;52.260;4.728;2023-07-31T04:27:05;6.10;;;2.10;;
7487;SDS011;3785;52.260;4.728;2023-07-31T04:30:25;3.35;;;1.52;;
7487;SDS011;3785;52.260;4.728;2023-07-31T04:33:46;5.55;;;2.03;;
7487;SDS011;3785;52.260;4.728;2023-07-31T04:37:07;4.05;;;1.80;;
7487;SDS011;3785;52.260;4.728;2023-07-31T04:40:27;5.05;;;1.75;;
7487;SDS011;3785;52.260;4.728;2023-07-31T04:43:48;2.10;;;1.25;;
7487;SDS011;3785;52.260;4.728;2023-07-31T04:47:08;3.78;;;1.35;;
7487;SDS011;3785;52.260;4.728;2023-07-31T04:50:29;4.55;;;1.45;;
7487;SDS011;3785;52.260;4.728;2023-07-31T04:53:50;2.70;;;0.80;;
7487;SDS011;3785;52.260;4.728;2023-07-31T04:57:10;3.70;;;1.23;;
7487;SDS011;3785;52.260;4.728;2023-07-31T05:00:31;2.63;;;0.70;;
7487;SDS011;3785;52.260;4.728;2023-07-31T05:03:52;2.08;;;0.60;;
7487;SDS011;3785;52.260;4.728;2023-07-31T05:07:12;1.10;;;0.70;;
7487;SDS011;3785;52.260;4.728;2023-07-31T05:10:33;2.88;;;0.60;;
7487;SDS011;3785;52.260;4.728;2023-07-31T05:13:53;1.65;;;0.50;;
7487;SDS011;3785;52.260;4.728;2023-07-31T05:17:14;1.70;;;0.63;;
7487;SDS011;3785;52.260;4.728;2023-07-31T05:20:34;1.23;;;0.50;;
7487;SDS011;3785;52.260;4.728;2023-07-31T05:23:55;1.88;;;0.60;;
7487;SDS011;3785;52.260;4.728;2023-07-31T05:27:15;1.60;;;0.80;;
7487;SDS011;3785;52.260;4.728;2023-07-31T05:30:38;0.82;;;0.50;;
7487;SDS011;3785;52.260;4.728;2023-07-31T05:33:59;1.08;;;0.60;;
7487;SDS011;3785;52.260;4.728;2023-07-31T05:37:19;2.33;;;0.70;;
7487;SDS011;3785;52.260;4.728;2023-07-31T05:40:40;2.13;;;0.90;;
7487;SDS011;3785;52.260;4.728;2023-07-31T05:44:00;0.93;;;0.70;;
7487;SDS011;3785;52.260;4.728;2023-07-31T05:47:21;1.35;;;0.80;;
7487;SDS011;3785;52.260;4.728;2023-07-31T05:50:42;1.90;;;0.93;;
7487;SDS011;3785;52.260;4.728;2023-07-31T05:54:03;2.13;;;1.08;;
7487;SDS011;3785;52.260;4.728;2023-07-31T05:57:24;2.05;;;1.13;;
7487;SDS011;3785;52.260;4.728;2023-07-31T06:00:45;1.38;;;0.95;;
7487;SDS011;3785;52.260;4.728;2023-07-31T06:04:05;1.40;;;0.73;;
7487;SDS011;3785;52.260;4.728;2023-07-31T06:07:26;1.52;;;0.70;;
7487;SDS011;3785;52.260;4.728;2023-07-31T06:10:50;2.22;;;0.80;;
7487;SDS011;3785;52.260;4.728;2023-07-31T06:14:12;0.70;;;0.50;;
7487;SDS011;3785;52.260;4.728;2023-07-31T06:17:33;0.93;;;0.60;;
7487;SDS011;3785;52.260;4.728;2023-07-31T06:20:56;1.92;;;0.80;;
7487;SDS011;3785;52.260;4.728;2023-07-31T06:24:17;1.10;;;0.50;;
7487;SDS011;3785;52.260;4.728;2023-07-31T06:27:40;1.25;;;0.55;;
7487;SDS011;3785;52.260;4.728;2023-07-31T06:31:01;0.82;;;0.50;;
7487;SDS011;3785;52.260;4.728;2023-07-31T06:34:21;1.10;;;0.55;;
7487;SDS011;3785;52.260;4.728;2023-07-31T06:37:42;0.77;;;0.40;;
7487;SDS011;3785;52.260;4.728;2023-07-31T06:41:04;1.23;;;0.47;;
7487;SDS011;3785;52.260;4.728;2023-07-31T06:44:24;0.70;;;0.40;;
7487;SDS011;3785;52.260;4.728;2023-07-31T06:47:45;1.27;;;0.35;;
7487;SDS011;3785;52.260;4.728;2023-07-31T06:51:06;1.15;;;0.50;;
7487;SDS011;3785;52.260;4.728;2023-07-31T06:54:27;2.55;;;0.60;;
7487;SDS011;3785;52.260;4.728;2023-07-31T06:57:48;1.30;;;0.52;;
7487;SDS011;3785;52.260;4.728;2023-07-31T07:01:10;1.95;;;0.70;;
7487;SDS011;3785;52.260;4.728;2023-07-31T07:04:30;1.38;;;0.70;;
7487;SDS011;3785;52.260;4.728;2023-07-31T07:07:51;1.50;;;0.63;;
7487;SDS011;3785;52.260;4.728;2023-07-31T07:11:12;1.15;;;0.65;;
7487;SDS011;3785;52.260;4.728;2023-07-31T07:14:32;2.30;;;0.73;;
7487;SDS011;3785;52.260;4.728;2023-07-31T07:17:53;1.48;;;0.70;;
7487;SDS011;3785;52.260;4.728;2023-07-31T07:21:13;2.45;;;0.88;;
7487;SDS011;3785;52.260;4.728;2023-07-31T07:24:35;2.65;;;0.80;;
7487;SDS011;3785;52.260;4.728;2023-07-31T07:27:56;1.80;;;0.80;;
7487;SDS011;3785;52.260;4.728;2023-07-31T07:31:16;3.75;;;1.10;;
7487;SDS011;3785;52.260;4.728;2023-07-31T07:34:37;2.08;;;0.90;;
7487;SDS011;3785;52.260;4.728;2023-07-31T07:37:58;1.90;;;0.80;;
7487;SDS011;3785;52.260;4.728;2023-07-31T07:41:18;2.33;;;0.80;;
7487;SDS011;3785;52.260;4.728;2023-07-31T07:44:39;2.42;;;0.80;;
7487;SDS011;3785;52.260;4.728;2023-07-31T07:48:00;4.05;;;1.10;;
7487;SDS011;3785;52.260;4.728;2023-07-31T07:51:20;1.40;;;0.70;;
7487;SDS011;3785;52.260;4.728;2023-07-31T07:54:41;3.40;;;0.90;;
7487;SDS011;3785;52.260;4.728;2023-07-31T07:58:01;3.10;;;0.80;;
7487;SDS011;3785;52.260;4.728;2023-07-31T08:01:22;4.28;;;0.70;;
7487;SDS011;3785;52.260;4.728;2023-07-31T08:04:43;1.98;;;0.70;;
7487;SDS011;3785;52.260;4.728;2023-07-31T08:08:03;3.45;;;1.02;;
7487;SDS011;3785;52.260;4.728;2023-07-31T08:11:24;2.50;;;0.80;;
7487;SDS011;3785;52.260;4.728;2023-07-31T08:14:45;2.55;;;1.08;;
7487;SDS011;3785;52.260;4.728;2023-07-31T08:18:06;3.13;;;0.88;;
7487;SDS011;3785;52.260;4.728;2023-07-31T08:21:27;1.88;;;0.80;;
7487;SDS011;3785;52.260;4.728;2023-07-31T08:24:48;1.95;;;0.90;;
7487;SDS011;3785;52.260;4.728;2023-07-31T08:28:09;3.72;;;0.80;;
7487;SDS011;3785;52.260;4.728;2023-07-31T08:31:30;2.00;;;0.88;;
7487;SDS011;3785;52.260;4.728;2023-07-31T08:34:51;2.95;;;0.98;;
7487;SDS011;3785;52.260;4.728;2023-07-31T08:38:12;2.00;;;0.88;;
7487;SDS011;3785;52.260;4.728;2023-07-31T08:41:42;2.33;;;1.02;;
7487;SDS011;3785;52.260;4.728;2023-07-31T08:45:03;3.22;;;0.98;;
7487;SDS011;3785;52.260;4.728;2023-07-31T08:48:24;3.28;;;1.00;;
7487;SDS011;3785;52.260;4.728;2023-07-31T08:51:46;2.67;;;1.08;;
7487;SDS011;3785;52.260;4.728;2023-07-31T08:55:08;4.70;;;1.33;;
7487;SDS011;3785;52.260;4.728;2023-07-31T08:58:30;4.07;;;1.35;;
7487;SDS011;3785;52.260;4.728;2023-07-31T09:01:53;3.20;;;1.10;;
7487;SDS011;3785;52.260;4.728;2023-07-31T09:05:14;4.78;;;1.27;;
7487;SDS011;3785;52.260;4.728;2023-07-31T09:08:35;4.10;;;0.95;;
7487;SDS011;3785;52.260;4.728;2023-07-31T09:11:57;4.13;;;1.25;;
7487;SDS011;3785;52.260;4.728;2023-07-31T09:15:18;1.60;;;0.70;;
7487;SDS011;3785;52.260;4.728;2023-07-31T09:18:52;4.95;;;1.23;;
7487;SDS011;3785;52.260;4.728;2023-07-31T09:22:14;4.50;;;1.30;;
7487;SDS011;3785;52.260;4.728;2023-07-31T09:25:35;6.38;;;1.30;;
7487;SDS011;3785;52.260;4.728;2023-07-31T09:29:00;4.45;;;1.40;;
7487;SDS011;3785;52.260;4.728;2023-07-31T09:32:23;4.32;;;1.27;;
7487;SDS011;3785;52.260;4.728;2023-07-31T09:35:46;3.00;;;1.40;;
7487;SDS011;3785;52.260;4.728;2023-07-31T09:39:11;7.57;;;1.40;;
7487;SDS011;3785;52.260;4.728;2023-07-31T09:42:32;8.35;;;1.75;;
7487;SDS011;3785;52.260;4.728;2023-07-31T09:45:55;6.40;;;1.30;;
7487;SDS011;3785;52.260;4.728;2023-07-31T09:49:17;6.03;;;1.30;;
7487;SDS011;3785;52.260;4.728;2023-07-31T09:52:38;4.90;;;1.67;;
7487;SDS011;3785;52.260;4.728;2023-07-31T09:55:59;5.47;;;1.40;;
7487;SDS011;3785;52.260;4.728;2023-07-31T09:59:21;3.13;;;1.65;;
7487;SDS011;3785;52.260;4.728;2023-07-31T10:02:45;4.60;;;1.55;;
7487;SDS011;3785;52.260;4.728;2023-07-31T10:06:06;4.05;;;1.40;;
7487;SDS011;3785;52.260;4.728;2023-07-31T10:09:30;6.68;;;1.45;;
7487;SDS011;3785;52.260;4.728;2023-07-31T10:12:52;3.42;;;1.15;;
7487;SDS011;3785;52.260;4.728;2023-07-31T10:16:13;4.57;;;1.38;;
7487;SDS011;3785;52.260;4.728;2023-07-31T10:19:36;5.15;;;1.63;;
7487;SDS011;3785;52.260;4.728;2023-07-31T10:22:57;4.60;;;1.50;;
7487;SDS011;3785;52.260;4.728;2023-07-31T10:26:19;2.30;;;1.25;;
7487;SDS011;3785;52.260;4.728;2023-07-31T10:29:41;5.50;;;1.48;;
7487;SDS011;3785;52.260;4.728;2023-07-31T10:33:02;6.38;;;1.50;;
7487;SDS011;3785;52.260;4.728;2023-07-31T10:36:23;4.38;;;1.50;;
7487;SDS011;3785;52.260;4.728;2023-07-31T10:39:45;6.53;;;1.30;;
7487;SDS011;3785;52.260;4.728;2023-07-31T10:43:24;4.97;;;1.65;;
7487;SDS011;3785;52.260;4.728;2023-07-31T10:46:53;4.78;;;1.45;;
7487;SDS011;3785;52.260;4.728;2023-07-31T10:53:39;4.65;;;1.48;;
7487;SDS011;3785;52.260;4.728;2023-07-31T10:57:01;4.72;;;1.35;;
7487;SDS011;3785;52.260;4.728;2023-07-31T11:00:24;5.55;;;1.33;;
7487;SDS011;3785;52.260;4.728;2023-07-31T11:03:46;5.13;;;1.48;;
7487;SDS011;3785;52.260;4.728;2023-07-31T11:07:09;3.72;;;1.42;;
7487;SDS011;3785;52.260;4.728;2023-07-31T11:10:33;6.68;;;2.20;;
7487;SDS011;3785;52.260;4.728;2023-07-31T11:13:54;6.28;;;1.80;;
7487;SDS011;3785;52.260;4.728;2023-07-31T11:17:16;4.00;;;1.27;;
7487;SDS011;3785;52.260;4.728;2023-07-31T11:20:37;7.18;;;1.67;;
7487;SDS011;3785;52.260;4.728;2023-07-31T11:23:59;6.57;;;2.08;;
7487;SDS011;3785;52.260;4.728;2023-07-31T11:27:20;3.47;;;1.48;;
7487;SDS011;3785;52.260;4.728;2023-07-31T11:30:41;4.05;;;1.55;;
7487;SDS011;3785;52.260;4.728;2023-07-31T11:34:06;4.10;;;1.35;;
7487;SDS011;3785;52.260;4.728;2023-07-31T11:37:40;5.82;;;1.52;;
7487;SDS011;3785;52.260;4.728;2023-07-31T11:41:02;3.65;;;1.63;;
7487;SDS011;3785;52.260;4.728;2023-07-31T11:44:23;3.42;;;1.40;;
7487;SDS011;3785;52.260;4.728;2023-07-31T11:47:44;4.90;;;1.65;;
7487;SDS011;3785;52.260;4.728;2023-07-31T11:51:08;5.47;;;1.60;;
7487;SDS011;3785;52.260;4.728;2023-07-31T11:54:30;4.20;;;1.50;;
7487;SDS011;3785;52.260;4.728;2023-07-31T11:57:52;5.28;;;1.60;;
7487;SDS011;3785;52.260;4.728;2023-07-31T12:01:14;6.25;;;1.40;;
7487;SDS011;3785;52.260;4.728;2023-07-31T12:04:35;4.97;;;1.35;;
7487;SDS011;3785;52.260;4.728;2023-07-31T12:07:56;2.28;;;1.35;;
7487;SDS011;3785;52.260;4.728;2023-07-31T12:11:18;3.95;;;1.33;;
7487;SDS011;3785;52.260;4.728;2023-07-31T12:14:41;4.90;;;1.52;;
7487;SDS011;3785;52.260;4.728;2023-07-31T12:18:10;5.25;;;1.48;;
7487;SDS011;3785;52.260;4.728;2023-07-31T12:21:31;4.55;;;1.30;;
7487;SDS011;3785;52.260;4.728;2023-07-31T12:24:52;3.67;;;1.50;;
7487;SDS011;3785;52.260;4.728;2023-07-31T12:28:14;3.33;;;1.13;;
7487;SDS011;3785;52.260;4.728;2023-07-31T12:31:35;4.30;;;1.30;;
7487;SDS011;3785;52.260;4.728;2023-07-31T12:34:59;4.82;;;1.42;;
7487;SDS011;3785;52.260;4.728;2023-07-31T12:38:21;1.85;;;0.93;;
7487;SDS011;3785;52.260;4.728;2023-07-31T12:41:42;2.95;;;1.05;;
7487;SDS011;3785;52.260;4.728;2023-07-31T12:45:03;4.10;;;0.95;;
7487;SDS011;3785;52.260;4.728;2023-07-31T12:48:24;2.28;;;1.02;;
7487;SDS011;3785;52.260;4.728;2023-07-31T12:51:45;2.95;;;0.75;;
7487;SDS011;3785;52.260;4.728;2023-07-31T12:55:06;3.05;;;1.00;;
7487;SDS011;3785;52.260;4.728;2023-07-31T12:58:27;6.28;;;1.40;;
7487;SDS011;3785;52.260;4.728;2023-07-31T13:01:48;2.58;;;0.95;;
7487;SDS011;3785;52.260;4.728;2023-07-31T13:05:09;4.60;;;1.42;;
7487;SDS011;3785;52.260;4.728;2023-07-31T13:08:30;3.25;;;1.02;;
7487;SDS011;3785;52.260;4.728;2023-07-31T13:11:51;4.50;;;0.80;;
7487;SDS011;3785;52.260;4.728;2023-07-31T13:15:12;1.25;;;0.60;;
7487;SDS011;3785;52.260;4.728;2023-07-31T13:18:33;1.92;;;0.98;;
7487;SDS011;3785;52.260;4.728;2023-07-31T13:21:54;2.72;;;0.80;;
7487;SDS011;3785;52.260;4.728;2023-07-31T13:25:15;1.58;;;0.55;;
7487;SDS011;3785;52.260;4.728;2023-07-31T13:28:36;3.75;;;0.68;;
7487;SDS011;3785;52.260;4.728;2023-07-31T13:31:57;3.72;;;0.82;;
7487;SDS011;3785;52.260;4.728;2023-07-31T13:35:18;1.88;;;0.45;;
7487;SDS011;3785;52.260;4.728;2023-07-31T13:38:39;1.50;;;0.80;;
7487;SDS011;3785;52.260;4.728;2023-07-31T13:42:01;0.95;;;0.45;;
7487;SDS011;3785;52.260;4.728;2023-07-31T13:45:22;1.55;;;0.63;;
7487;SDS011;3785;52.260;4.728;2023-07-31T13:48:43;1.00;;;0.50;;
7487;SDS011;3785;52.260;4.728;2023-07-31T13:52:04;2.55;;;1.35;;
7487;SDS011;3785;52.260;4.728;2023-07-31T13:55:25;2.55;;;0.88;;
7487;SDS011;3785;52.260;4.728;2023-07-31T13:58:46;3.05;;;1.08;;
7487;SDS011;3785;52.260;4.728;2023-07-31T14:02:07;1.88;;;0.73;;
7487;SDS011;3785;52.260;4.728;2023-07-31T14:05:28;1.77;;;0.85;;
7487;SDS011;3785;52.260;4.728;2023-07-31T14:08:49;2.95;;;1.10;;
7487;SDS011;3785;52.260;4.728;2023-07-31T14:12:10;3.22;;;1.20;;
7487;SDS011;3785;52.260;4.728;2023-07-31T14:15:31;1.60;;;0.98;;
7487;SDS011;3785;52.260;4.728;2023-07-31T14:18:52;3.40;;;0.90;;
7487;SDS011;3785;52.260;4.728;2023-07-31T14:22:13;1.92;;;0.73;;
7487;SDS011;3785;52.260;4.728;2023-07-31T14:25:34;4.10;;;1.13;;
7487;SDS011;3785;52.260;4.728;2023-07-31T14:28:55;3.58;;;1.05;;
7487;SDS011;3785;52.260;4.728;2023-07-31T14:32:16;2.38;;;0.82;;
7487;SDS011;3785;52.260;4.728;2023-07-31T14:35:37;3.30;;;0.90;;
7487;SDS011;3785;52.260;4.728;2023-07-31T14:38:58;2.33;;;0.80;;
7487;SDS011;3785;52.260;4.728;2023-07-31T14:42:19;4.50;;;1.08;;
7487;SDS011;3785;52.260;4.728;2023-07-31T14:45:40;2.55;;;0.82;;
7487;SDS011;3785;52.260;4.728;2023-07-31T14:49:01;2.50;;;0.80;;
7487;SDS011;3785;52.260;4.728;2023-07-31T14:52:22;1.15;;;0.60;;
7487;SDS011;3785;52.260;4.728;2023-07-31T14:55:43;2.17;;;0.75;;
7487;SDS011;3785;52.260;4.728;2023-07-31T14:59:04;4.28;;;0.80;;
7487;SDS011;3785;52.260;4.728;2023-07-31T15:02:25;2.80;;;0.68;;
7487;SDS011;3785;52.260;4.728;2023-07-31T15:05:47;1.35;;;0.60;;
7487;SDS011;3785;52.260;4.728;2023-07-31T15:09:08;1.58;;;0.50;;
7487;SDS011;3785;52.260;4.728;2023-07-31T15:12:29;1.80;;;0.80;;
7487;SDS011;3785;52.260;4.728;2023-07-31T15:15:50;2.45;;;0.60;;
7487;SDS011;3785;52.260;4.728;2023-07-31T15:19:11;1.13;;;0.47;;
7487;SDS011;3785;52.260;4.728;2023-07-31T15:22:32;1.13;;;0.60;;
7487;SDS011;3785;52.260;4.728;2023-07-31T15:25:53;1.88;;;0.70;;
7487;SDS011;3785;52.260;4.728;2023-07-31T15:29:14;0.85;;;0.40;;
7487;SDS011;3785;52.260;4.728;2023-07-31T15:32:39;1.95;;;0.70;;
7487;SDS011;3785;52.260;4.728;2023-07-31T15:36:00;0.43;;;0.30;;
7487;SDS011;3785;52.260;4.728;2023-07-31T15:39:21;1.27;;;0.40;;
7487;SDS011;3785;52.260;4.728;2023-07-31T15:42:42;0.80;;;0.32;;
7487;SDS011;3785;52.260;4.728;2023-07-31T15:46:03;1.40;;;0.65;;
7487;SDS011;3785;52.260;4.728;2023-07-31T15:49:24;0.95;;;0.40;;
7487;SDS011;3785;52.260;4.728;2023-07-31T15:52:45;1.10;;;0.50;;
7487;SDS011;3785;52.260;4.728;2023-07-31T15:56:06;1.23;;;0.40;;
7487;SDS011;3785;52.260;4.728;2023-07-31T15:59:27;0.75;;;0.30;;
7487;SDS011;3785;52.260;4.728;2023-07-31T16:02:48;1.27;;;0.52;;
7487;SDS011;3785;52.260;4.728;2023-07-31T16:06:09;0.50;;;0.40;;
7487;SDS011;3785;52.260;4.728;2023-07-31T16:09:30;1.70;;;0.60;;
7487;SDS011;3785;52.260;4.728;2023-07-31T16:12:51;0.60;;;0.40;;
7487;SDS011;3785;52.260;4.728;2023-07-31T16:16:12;1.77;;;0.50;;
7487;SDS011;3785;52.260;4.728;2023-07-31T16:19:32;1.02;;;0.50;;
7487;SDS011;3785;52.260;4.728;2023-07-31T16:22:54;2.85;;;0.90;;
7487;SDS011;3785;52.260;4.728;2023-07-31T16:26:15;2.30;;;1.00;;
7487;SDS011;3785;52.260;4.728;2023-07-31T16:29:36;1.45;;;0.70;;
7487;SDS011;3785;52.260;4.728;2023-07-31T16:32:57;3.03;;;0.80;;
7487;SDS011;3785;52.260;4.728;2023-07-31T16:36:18;2.58;;;0.70;;
7487;SDS011;3785;52.260;4.728;2023-07-31T16:39:41;2.60;;;0.90;;
7487;SDS011;3785;52.260;4.728;2023-07-31T16:43:06;3.13;;;0.95;;
7487;SDS011;3785;52.260;4.728;2023-07-31T16:46:27;3.63;;;0.70;;
7487;SDS011;3785;52.260;4.728;2023-07-31T16:49:50;4.60;;;1.10;;
7487;SDS011;3785;52.260;4.728;2023-07-31T16:53:11;1.38;;;0.77;;
7487;SDS011;3785;52.260;4.728;2023-07-31T16:56:32;4.15;;;1.08;;
7487;SDS011;3785;52.260;4.728;2023-07-31T16:59:53;3.70;;;1.02;;
7487;SDS011;3785;52.260;4.728;2023-07-31T17:03:14;4.25;;;1.30;;
7487;SDS011;3785;52.260;4.728;2023-07-31T17:06:35;2.30;;;0.95;;
7487;SDS011;3785;52.260;4.728;2023-07-31T17:09:56;3.47;;;1.02;;
7487;SDS011;3785;52.260;4.728;2023-07-31T17:13:18;2.45;;;1.23;;
7487;SDS011;3785;52.260;4.728;2023-07-31T17:16:39;1.75;;;0.80;;
7487;SDS011;3785;52.260;4.728;2023-07-31T17:20:00;4.35;;;1.20;;
7487;SDS011;3785;52.260;4.728;2023-07-31T17:23:21;2.55;;;0.90;;
7487;SDS011;3785;52.260;4.728;2023-07-31T17:26:42;4.05;;;1.20;;
7487;SDS011;3785;52.260;4.728;2023-07-31T17:30:03;1.77;;;0.70;;
7487;SDS011;3785;52.260;4.728;2023-07-31T17:33:24;2.22;;;0.77;;
7487;SDS011;3785;52.260;4.728;2023-07-31T17:36:45;1.38;;;0.70;;
7487;SDS011;3785;52.260;4.728;2023-07-31T17:40:06;3.03;;;0.90;;
7487;SDS011;3785;52.260;4.728;2023-07-31T17:43:27;1.92;;;0.70;;
7487;SDS011;3785;52.260;4.728;2023-07-31T17:46:48;4.05;;;0.98;;
7487;SDS011;3785;52.260;4.728;2023-07-31T17:50:11;2.97;;;0.70;;
7487;SDS011;3785;52.260;4.728;2023-07-31T17:53:32;3.60;;;1.13;;
7487;SDS011;3785;52.260;4.728;2023-07-31T17:56:53;2.78;;;0.85;;
7487;SDS011;3785;52.260;4.728;2023-07-31T18:00:14;4.57;;;0.90;;
7487;SDS011;3785;52.260;4.728;2023-07-31T18:03:35;5.88;;;1.00;;
7487;SDS011;3785;52.260;4.728;2023-07-31T18:06:56;2.42;;;0.93;;
7487;SDS011;3785;52.260;4.728;2023-07-31T18:10:17;4.75;;;1.15;;
7487;SDS011;3785;52.260;4.728;2023-07-31T18:13:38;2.42;;;1.00;;
7487;SDS011;3785;52.260;4.728;2023-07-31T18:16:59;2.90;;;1.00;;
7487;SDS011;3785;52.260;4.728;2023-07-31T18:20:21;3.53;;;0.93;;
7487;SDS011;3785;52.260;4.728;2023-07-31T18:23:41;3.67;;;0.80;;
7487;SDS011;3785;52.260;4.728;2023-07-31T18:27:03;3.00;;;1.00;;
7487;SDS011;3785;52.260;4.728;2023-07-31T18:30:24;2.20;;;0.80;;
7487;SDS011;3785;52.260;4.728;2023-07-31T18:33:45;5.47;;;1.30;;
7487;SDS011;3785;52.260;4.728;2023-07-31T18:37:06;2.55;;;1.00;;
7487;SDS011;3785;52.260;4.728;2023-07-31T18:40:27;3.17;;;1.00;;
7487;SDS011;3785;52.260;4.728;2023-07-31T18:43:48;5.80;;;1.00;;
7487;SDS011;3785;52.260;4.728;2023-07-31T18:47:09;4.68;;;1.55;;
7487;SDS011;3785;52.260;4.728;2023-07-31T18:50:29;3.85;;;1.30;;
7487;SDS011;3785;52.260;4.728;2023-07-31T18:53:50;2.88;;;1.10;;
7487;SDS011;3785;52.260;4.728;2023-07-31T18:57:11;3.72;;;1.20;;
7487;SDS011;3785;52.260;4.728;2023-07-31T19:00:32;4.57;;;1.30;;
7487;SDS011;3785;52.260;4.728;2023-07-31T19:03:53;3.33;;;1.38;;
7487;SDS011;3785;52.260;4.728;2023-07-31T19:07:14;4.15;;;1.25;;
7487;SDS011;3785;52.260;4.728;2023-07-31T19:10:36;1.60;;;0.88;;
7487;SDS011;3785;52.260;4.728;2023-07-31T19:13:57;2.97;;;1.20;;
7487;SDS011;3785;52.260;4.728;2023-07-31T19:17:19;3.38;;;1.10;;
7487;SDS011;3785;52.260;4.728;2023-07-31T19:20:40;1.83;;;0.93;;
7487;SDS011;3785;52.260;4.728;2023-07-31T19:24:01;3.97;;;1.13;;
7487;SDS011;3785;52.260;4.728;2023-07-31T19:27:22;3.00;;;1.08;;
7487;SDS011;3785;52.260;4.728;2023-07-31T19:30:43;2.75;;;0.90;;
7487;SDS011;3785;52.260;4.728;2023-07-31T19:34:04;2.15;;;1.40;;
7487;SDS011;3785;52.260;4.728;2023-07-31T19:37:25;3.60;;;1.15;;
7487;SDS011;3785;52.260;4.728;2023-07-31T19:40:46;2.53;;;0.88;;
7487;SDS011;3785;52.260;4.728;2023-07-31T19:44:07;2.75;;;1.02;;
7487;SDS011;3785;52.260;4.728;2023-07-31T19:47:30;2.60;;;1.00;;
7487;SDS011;3785;52.260;4.728;2023-07-31T19:50:51;4.78;;;1.00;;
7487;SDS011;3785;52.260;4.728;2023-07-31T19:54:12;4.47;;;1.00;;
7487;SDS011;3785;52.260;4.728;2023-07-31T19:57:33;2.35;;;0.90;;
7487;SDS011;3785;52.260;4.728;2023-07-31T20:00:54;2.42;;;1.00;;
7487;SDS011;3785;52.260;4.728;2023-07-31T20:04:15;2.72;;;0.90;;
7487;SDS011;3785;52.260;4.728;2023-07-31T20:07:36;4.07;;;1.10;;
7487;SDS011;3785;52.260;4.728;2023-07-31T20:10:57;3.90;;;1.08;;
7487;SDS011;3785;52.260;4.728;2023-07-31T20:14:19;1.98;;;0.85;;
7487;SDS011;3785;52.260;4.728;2023-07-31T20:17:40;2.67;;;1.02;;
7487;SDS011;3785;52.260;4.728;2023-07-31T20:21:01;2.90;;;1.05;;
7487;SDS011;3785;52.260;4.728;2023-07-31T20:24:22;3.60;;;1.10;;
7487;SDS011;3785;52.260;4.728;2023-07-31T20:27:43;1.85;;;0.80;;
7487;SDS011;3785;52.260;4.728;2023-07-31T20:31:04;3.03;;;0.70;;
7487;SDS011;3785;52.260;4.728;2023-07-31T20:34:25;3.53;;;1.20;;
7487;SDS011;3785;52.260;4.728;2023-07-31T20:37:46;4.53;;;1.35;;
7487;SDS011;3785;52.260;4.728;2023-07-31T20:41:07;3.60;;;0.95;;
7487;SDS011;3785;52.260;4.728;2023-07-31T20:44:28;2.90;;;1.30;;
7487;SDS011;3785;52.260;4.728;2023-07-31T20:47:49;3.03;;;0.98;;
7487;SDS011;3785;52.260;4.728;2023-07-31T20:51:10;3.35;;;1.38;;
7487;SDS011;3785;52.260;4.728;2023-07-31T20:54:31;5.05;;;1.33;;
7487;SDS011;3785;52.260;4.728;2023-07-31T20:57:52;6.60;;;1.23;;
7487;SDS011;3785;52.260;4.728;2023-07-31T21:01:13;3.03;;;0.95;;